sensor_id;sensor_type;location;lat;lon;timestamp;P1;durP1;ratioP1;P2;durP2;ratioP2
25263;SDS011;13211;51.796;5.808;2022-10-22T00:03:34;5.63;;;4.20;;
25263;SDS011;13211;51.796;5.808;2022-10-22T00:06:02;7.95;;;4.10;;
25263;SDS011;13211;51.796;5.808;2022-10-22T00:08:31;6.88;;;4.55;;
25263;SDS011;13211;51.796;5.808;2022-10-22T00:11:10;16.75;;;5.00;;
25263;SDS011;13211;51.796;5.808;2022-10-22T00:13:38;9.93;;;5.72;;
25263;SDS011;13211;51.796;5.808;2022-10-22T00:16:09;16.90;;;6.07;;
25263;SDS011;13211;51.796;5.808;2022-10-22T00:18:37;7.07;;;5.28;;
25263;SDS011;13211;51.796;5.808;2022-10-22T00:21:05;14.05;;;5.70;;
25263;SDS011;13211;51.796;5.808;2022-10-22T00:23:34;13.45;;;6.47;;
25263;SDS011;13211;51.796;5.808;2022-10-22T00:26:02;14.05;;;6.00;;
25263;SDS011;13211;51.796;5.808;2022-10-22T00:28:33;11.98;;;6.63;;
25263;SDS011;13211;51.796;5.808;2022-10-22T00:31:01;13.30;;;6.85;;
25263;SDS011;13211;51.796;5.808;2022-10-22T00:33:34;11.40;;;6.78;;
25263;SDS011;13211;51.796;5.808;2022-10-22T00:36:02;12.52;;;6.47;;
25263;SDS011;13211;51.796;5.808;2022-10-22T00:38:30;12.20;;;6.53;;
25263;SDS011;13211;51.796;5.808;2022-10-22T00:41:00;15.25;;;6.70;;
25263;SDS011;13211;51.796;5.808;2022-10-22T00:43:30;11.90;;;6.65;;
25263;SDS011;13211;51.796;5.808;2022-10-22T00:45:58;11.38;;;6.63;;
25263;SDS011;13211;51.796;5.808;2022-10-22T00:48:28;14.27;;;6.40;;
25263;SDS011;13211;51.796;5.808;2022-10-22T00:51:03;9.18;;;5.85;;
25263;SDS011;13211;51.796;5.808;2022-10-22T00:53:41;14.25;;;5.75;;
25263;SDS011;13211;51.796;5.808;2022-10-22T00:56:09;12.80;;;6.35;;
25263;SDS011;13211;51.796;5.808;2022-10-22T00:58:40;10.90;;;6.63;;
25263;SDS011;13211;51.796;5.808;2022-10-22T01:01:11;19.08;;;6.30;;
25263;SDS011;13211;51.796;5.808;2022-10-22T01:03:40;12.50;;;7.00;;
25263;SDS011;13211;51.796;5.808;2022-10-22T01:06:09;16.58;;;6.38;;
25263;SDS011;13211;51.796;5.808;2022-10-22T01:11:10;18.35;;;6.20;;
25263;SDS011;13211;51.796;5.808;2022-10-22T01:13:46;18.42;;;7.35;;
25263;SDS011;13211;51.796;5.808;2022-10-22T01:16:21;14.40;;;6.43;;
25263;SDS011;13211;51.796;5.808;2022-10-22T01:21:44;13.15;;;6.75;;
25263;SDS011;13211;51.796;5.808;2022-10-22T01:24:22;14.37;;;7.07;;
25263;SDS011;13211;51.796;5.808;2022-10-22T01:29:47;15.88;;;7.40;;
25263;SDS011;13211;51.796;5.808;2022-10-22T01:32:17;10.93;;;7.35;;
25263;SDS011;13211;51.796;5.808;2022-10-22T01:34:47;19.03;;;7.60;;
25263;SDS011;13211;51.796;5.808;2022-10-22T01:37:17;14.60;;;7.45;;
25263;SDS011;13211;51.796;5.808;2022-10-22T01:39:47;16.98;;;8.73;;
25263;SDS011;13211;51.796;5.808;2022-10-22T01:42:15;17.92;;;7.38;;
25263;SDS011;13211;51.796;5.808;2022-10-22T01:44:43;15.50;;;7.65;;
25263;SDS011;13211;51.796;5.808;2022-10-22T02:00:45;18.23;;;7.60;;
25263;SDS011;13211;51.796;5.808;2022-10-22T02:03:28;15.07;;;7.55;;
25263;SDS011;13211;51.796;5.808;2022-10-22T02:05:58;14.27;;;7.72;;
25263;SDS011;13211;51.796;5.808;2022-10-22T02:08:31;18.10;;;8.13;;
25263;SDS011;13211;51.796;5.808;2022-10-22T02:11:00;11.10;;;7.75;;
25263;SDS011;13211;51.796;5.808;2022-10-22T02:13:38;21.58;;;8.27;;
25263;SDS011;13211;51.796;5.808;2022-10-22T02:16:12;15.05;;;7.82;;
25263;SDS011;13211;51.796;5.808;2022-10-22T02:18:42;18.98;;;7.75;;
25263;SDS011;13211;51.796;5.808;2022-10-22T02:21:14;15.00;;;7.85;;
25263;SDS011;13211;51.796;5.808;2022-10-22T02:23:42;16.60;;;7.47;;
25263;SDS011;13211;51.796;5.808;2022-10-22T02:28:44;24.10;;;7.38;;
25263;SDS011;13211;51.796;5.808;2022-10-22T02:31:20;16.13;;;7.68;;
25263;SDS011;13211;51.796;5.808;2022-10-22T02:33:53;11.93;;;7.65;;
25263;SDS011;13211;51.796;5.808;2022-10-22T02:36:25;12.85;;;7.57;;
25263;SDS011;13211;51.796;5.808;2022-10-22T02:38:58;12.80;;;7.00;;
25263;SDS011;13211;51.796;5.808;2022-10-22T02:41:27;13.75;;;7.70;;
25263;SDS011;13211;51.796;5.808;2022-10-22T02:43:57;18.52;;;7.85;;
25263;SDS011;13211;51.796;5.808;2022-10-22T02:46:30;15.98;;;7.60;;
25263;SDS011;13211;51.796;5.808;2022-10-22T02:48:58;17.98;;;7.85;;
25263;SDS011;13211;51.796;5.808;2022-10-22T02:51:28;17.10;;;7.57;;
25263;SDS011;13211;51.796;5.808;2022-10-22T02:53:57;13.63;;;7.65;;
25263;SDS011;13211;51.796;5.808;2022-10-22T02:56:25;16.25;;;7.65;;
25263;SDS011;13211;51.796;5.808;2022-10-22T02:58:54;14.82;;;7.05;;
25263;SDS011;13211;51.796;5.808;2022-10-22T03:01:21;30.38;;;7.40;;
25263;SDS011;13211;51.796;5.808;2022-10-22T03:03:49;17.27;;;7.63;;
25263;SDS011;13211;51.796;5.808;2022-10-22T03:06:17;17.13;;;7.43;;
25263;SDS011;13211;51.796;5.808;2022-10-22T03:08:46;19.88;;;7.15;;
25263;SDS011;13211;51.796;5.808;2022-10-22T03:11:15;16.42;;;7.25;;
25263;SDS011;13211;51.796;5.808;2022-10-22T03:13:43;19.70;;;7.78;;
25263;SDS011;13211;51.796;5.808;2022-10-22T03:16:10;16.63;;;7.75;;
25263;SDS011;13211;51.796;5.808;2022-10-22T03:18:41;12.73;;;7.10;;
25263;SDS011;13211;51.796;5.808;2022-10-22T03:21:17;18.35;;;7.10;;
25263;SDS011;13211;51.796;5.808;2022-10-22T03:23:47;21.88;;;7.63;;
25263;SDS011;13211;51.796;5.808;2022-10-22T03:26:15;18.98;;;6.60;;
25263;SDS011;13211;51.796;5.808;2022-10-22T03:28:47;17.35;;;6.60;;
25263;SDS011;13211;51.796;5.808;2022-10-22T03:31:16;12.00;;;6.60;;
25263;SDS011;13211;51.796;5.808;2022-10-22T03:33:45;12.50;;;6.80;;
25263;SDS011;13211;51.796;5.808;2022-10-22T03:36:13;19.25;;;6.72;;
25263;SDS011;13211;51.796;5.808;2022-10-22T03:38:42;21.15;;;6.40;;
25263;SDS011;13211;51.796;5.808;2022-10-22T03:41:10;16.40;;;6.07;;
25263;SDS011;13211;51.796;5.808;2022-10-22T03:43:38;15.77;;;6.07;;
25263;SDS011;13211;51.796;5.808;2022-10-22T03:46:06;19.67;;;6.88;;
25263;SDS011;13211;51.796;5.808;2022-10-22T03:48:34;13.52;;;6.78;;
25263;SDS011;13211;51.796;5.808;2022-10-22T03:51:03;13.75;;;6.18;;
25263;SDS011;13211;51.796;5.808;2022-10-22T03:53:30;17.52;;;6.72;;
25263;SDS011;13211;51.796;5.808;2022-10-22T03:55:58;10.50;;;6.13;;
25263;SDS011;13211;51.796;5.808;2022-10-22T03:58:28;13.35;;;6.32;;
25263;SDS011;13211;51.796;5.808;2022-10-22T04:00:56;18.15;;;6.38;;
25263;SDS011;13211;51.796;5.808;2022-10-22T04:03:37;13.38;;;6.68;;
25263;SDS011;13211;51.796;5.808;2022-10-22T04:06:09;13.57;;;6.35;;
25263;SDS011;13211;51.796;5.808;2022-10-22T04:08:45;13.13;;;6.57;;
25263;SDS011;13211;51.796;5.808;2022-10-22T04:11:13;18.00;;;6.07;;
25263;SDS011;13211;51.796;5.808;2022-10-22T04:13:41;10.75;;;6.60;;
25263;SDS011;13211;51.796;5.808;2022-10-22T04:16:17;15.52;;;6.15;;
25263;SDS011;13211;51.796;5.808;2022-10-22T04:18:46;13.30;;;5.95;;
25263;SDS011;13211;51.796;5.808;2022-10-22T04:21:15;14.25;;;7.10;;
25263;SDS011;13211;51.796;5.808;2022-10-22T04:23:47;13.15;;;6.82;;
25263;SDS011;13211;51.796;5.808;2022-10-22T04:26:16;22.30;;;6.45;;
25263;SDS011;13211;51.796;5.808;2022-10-22T04:28:47;11.40;;;6.03;;
25263;SDS011;13211;51.796;5.808;2022-10-22T04:31:16;14.93;;;6.75;;
25263;SDS011;13211;51.796;5.808;2022-10-22T04:33:45;14.93;;;6.67;;
25263;SDS011;13211;51.796;5.808;2022-10-22T04:36:14;15.07;;;6.68;;
25263;SDS011;13211;51.796;5.808;2022-10-22T04:38:44;16.02;;;6.88;;
25263;SDS011;13211;51.796;5.808;2022-10-22T04:41:13;12.32;;;6.47;;
25263;SDS011;13211;51.796;5.808;2022-10-22T04:43:42;16.75;;;6.80;;
25263;SDS011;13211;51.796;5.808;2022-10-22T04:46:10;13.25;;;6.80;;
25263;SDS011;13211;51.796;5.808;2022-10-22T04:48:39;10.68;;;6.43;;
25263;SDS011;13211;51.796;5.808;2022-10-22T04:51:07;11.30;;;6.40;;
25263;SDS011;13211;51.796;5.808;2022-10-22T04:53:53;16.90;;;6.88;;
25263;SDS011;13211;51.796;5.808;2022-10-22T04:56:23;17.17;;;6.70;;
25263;SDS011;13211;51.796;5.808;2022-10-22T04:58:53;12.38;;;6.38;;
25263;SDS011;13211;51.796;5.808;2022-10-22T05:01:25;18.52;;;6.78;;
25263;SDS011;13211;51.796;5.808;2022-10-22T05:03:53;13.50;;;7.25;;
25263;SDS011;13211;51.796;5.808;2022-10-22T05:06:22;14.70;;;6.80;;
25263;SDS011;13211;51.796;5.808;2022-10-22T05:08:52;11.85;;;6.45;;
25263;SDS011;13211;51.796;5.808;2022-10-22T05:11:24;18.90;;;6.90;;
25263;SDS011;13211;51.796;5.808;2022-10-22T05:13:54;18.23;;;6.47;;
25263;SDS011;13211;51.796;5.808;2022-10-22T05:16:24;12.32;;;6.40;;
25263;SDS011;13211;51.796;5.808;2022-10-22T05:19:03;10.80;;;5.78;;
25263;SDS011;13211;51.796;5.808;2022-10-22T05:21:31;19.88;;;7.05;;
25263;SDS011;13211;51.796;5.808;2022-10-22T05:24:02;16.38;;;7.00;;
25263;SDS011;13211;51.796;5.808;2022-10-22T05:26:30;16.27;;;6.82;;
25263;SDS011;13211;51.796;5.808;2022-10-22T05:29:02;17.67;;;6.28;;
25263;SDS011;13211;51.796;5.808;2022-10-22T05:31:31;19.65;;;7.57;;
25263;SDS011;13211;51.796;5.808;2022-10-22T05:34:01;13.68;;;6.70;;
25263;SDS011;13211;51.796;5.808;2022-10-22T05:36:30;14.32;;;6.47;;
25263;SDS011;13211;51.796;5.808;2022-10-22T05:38:58;17.50;;;7.25;;
25263;SDS011;13211;51.796;5.808;2022-10-22T05:41:31;20.33;;;7.30;;
25263;SDS011;13211;51.796;5.808;2022-10-22T05:44:03;14.00;;;7.32;;
25263;SDS011;13211;51.796;5.808;2022-10-22T05:46:32;14.98;;;7.15;;
25263;SDS011;13211;51.796;5.808;2022-10-22T05:49:09;14.00;;;6.68;;
25263;SDS011;13211;51.796;5.808;2022-10-22T05:51:39;22.95;;;6.93;;
25263;SDS011;13211;51.796;5.808;2022-10-22T05:54:07;14.75;;;6.97;;
25263;SDS011;13211;51.796;5.808;2022-10-22T05:56:46;22.35;;;6.57;;
25263;SDS011;13211;51.796;5.808;2022-10-22T05:59:15;19.60;;;7.00;;
25263;SDS011;13211;51.796;5.808;2022-10-22T06:01:44;18.95;;;7.25;;
25263;SDS011;13211;51.796;5.808;2022-10-22T06:04:12;20.50;;;6.93;;
25263;SDS011;13211;51.796;5.808;2022-10-22T06:06:45;22.33;;;7.57;;
25263;SDS011;13211;51.796;5.808;2022-10-22T06:09:19;14.00;;;6.82;;
25263;SDS011;13211;51.796;5.808;2022-10-22T06:11:49;19.27;;;6.95;;
25263;SDS011;13211;51.796;5.808;2022-10-22T06:14:17;13.70;;;7.13;;
25263;SDS011;13211;51.796;5.808;2022-10-22T06:16:47;23.50;;;7.18;;
25263;SDS011;13211;51.796;5.808;2022-10-22T06:19:18;16.15;;;6.97;;
25263;SDS011;13211;51.796;5.808;2022-10-22T06:21:46;20.80;;;6.80;;
25263;SDS011;13211;51.796;5.808;2022-10-22T06:24:15;16.40;;;7.15;;
25263;SDS011;13211;51.796;5.808;2022-10-22T06:26:43;24.15;;;6.80;;
25263;SDS011;13211;51.796;5.808;2022-10-22T06:29:11;21.60;;;7.35;;
25263;SDS011;13211;51.796;5.808;2022-10-22T06:31:39;19.80;;;6.97;;
25263;SDS011;13211;51.796;5.808;2022-10-22T06:34:10;19.67;;;7.28;;
25263;SDS011;13211;51.796;5.808;2022-10-22T06:36:40;18.90;;;7.93;;
25263;SDS011;13211;51.796;5.808;2022-10-22T06:39:12;28.80;;;7.50;;
25263;SDS011;13211;51.796;5.808;2022-10-22T06:41:40;16.77;;;6.63;;
25263;SDS011;13211;51.796;5.808;2022-10-22T06:44:13;21.58;;;7.70;;
25263;SDS011;13211;51.796;5.808;2022-10-22T06:46:42;18.33;;;6.53;;
25263;SDS011;13211;51.796;5.808;2022-10-22T06:49:10;16.48;;;6.10;;
25263;SDS011;13211;51.796;5.808;2022-10-22T06:51:38;16.38;;;6.50;;
25263;SDS011;13211;51.796;5.808;2022-10-22T06:54:09;21.02;;;6.68;;
25263;SDS011;13211;51.796;5.808;2022-10-22T06:56:37;20.35;;;6.35;;
25263;SDS011;13211;51.796;5.808;2022-10-22T06:59:06;17.88;;;6.20;;
25263;SDS011;13211;51.796;5.808;2022-10-22T07:01:34;20.17;;;7.00;;
25263;SDS011;13211;51.796;5.808;2022-10-22T07:04:03;25.23;;;6.93;;
25263;SDS011;13211;51.796;5.808;2022-10-22T07:06:35;17.48;;;7.22;;
25263;SDS011;13211;51.796;5.808;2022-10-22T07:09:03;22.50;;;7.55;;
25263;SDS011;13211;51.796;5.808;2022-10-22T07:11:39;21.10;;;6.82;;
25263;SDS011;13211;51.796;5.808;2022-10-22T07:14:08;20.40;;;7.03;;
25263;SDS011;13211;51.796;5.808;2022-10-22T07:16:43;25.25;;;6.75;;
25263;SDS011;13211;51.796;5.808;2022-10-22T07:19:12;18.42;;;7.10;;
25263;SDS011;13211;51.796;5.808;2022-10-22T07:21:41;20.70;;;6.68;;
25263;SDS011;13211;51.796;5.808;2022-10-22T07:24:09;20.25;;;7.35;;
25263;SDS011;13211;51.796;5.808;2022-10-22T07:26:37;19.27;;;7.20;;
25263;SDS011;13211;51.796;5.808;2022-10-22T07:29:05;26.50;;;6.60;;
25263;SDS011;13211;51.796;5.808;2022-10-22T07:31:34;20.13;;;7.35;;
25263;SDS011;13211;51.796;5.808;2022-10-22T07:34:02;21.25;;;6.57;;
25263;SDS011;13211;51.796;5.808;2022-10-22T07:36:30;24.48;;;6.00;;
25263;SDS011;13211;51.796;5.808;2022-10-22T07:38:58;24.15;;;6.95;;
25263;SDS011;13211;51.796;5.808;2022-10-22T07:41:27;19.67;;;6.47;;
25263;SDS011;13211;51.796;5.808;2022-10-22T07:44:01;18.45;;;6.28;;
25263;SDS011;13211;51.796;5.808;2022-10-22T07:46:51;24.00;;;6.70;;
25263;SDS011;13211;51.796;5.808;2022-10-22T07:49:19;28.20;;;8.10;;
25263;SDS011;13211;51.796;5.808;2022-10-22T07:51:48;26.95;;;6.65;;
25263;SDS011;13211;51.796;5.808;2022-10-22T07:54:16;21.88;;;6.85;;
25263;SDS011;13211;51.796;5.808;2022-10-22T07:56:45;18.02;;;6.10;;
25263;SDS011;13211;51.796;5.808;2022-10-22T07:59:14;19.15;;;5.78;;
25263;SDS011;13211;51.796;5.808;2022-10-22T08:01:41;26.50;;;6.40;;
25263;SDS011;13211;51.796;5.808;2022-10-22T08:04:09;23.88;;;6.65;;
25263;SDS011;13211;51.796;5.808;2022-10-22T08:06:38;23.63;;;5.93;;
25263;SDS011;13211;51.796;5.808;2022-10-22T08:09:11;27.70;;;5.95;;
25263;SDS011;13211;51.796;5.808;2022-10-22T08:11:40;20.60;;;5.90;;
25263;SDS011;13211;51.796;5.808;2022-10-22T08:14:07;25.10;;;6.55;;
25263;SDS011;13211;51.796;5.808;2022-10-22T08:16:35;16.75;;;5.20;;
25263;SDS011;13211;51.796;5.808;2022-10-22T08:19:03;21.58;;;5.57;;
25263;SDS011;13211;51.796;5.808;2022-10-22T08:21:31;22.75;;;5.53;;
25263;SDS011;13211;51.796;5.808;2022-10-22T08:24:00;26.80;;;6.50;;
25263;SDS011;13211;51.796;5.808;2022-10-22T08:26:28;26.10;;;5.38;;
25263;SDS011;13211;51.796;5.808;2022-10-22T08:28:57;28.37;;;5.53;;
25263;SDS011;13211;51.796;5.808;2022-10-22T08:31:30;26.92;;;5.32;;
25263;SDS011;13211;51.796;5.808;2022-10-22T08:34:02;20.00;;;4.53;;
25263;SDS011;13211;51.796;5.808;2022-10-22T08:36:37;22.77;;;4.38;;
25263;SDS011;13211;51.796;5.808;2022-10-22T08:39:05;16.58;;;3.75;;
25263;SDS011;13211;51.796;5.808;2022-10-22T08:41:49;19.42;;;3.70;;
25263;SDS011;13211;51.796;5.808;2022-10-22T08:44:29;25.33;;;4.53;;
25263;SDS011;13211;51.796;5.808;2022-10-22T08:47:02;30.13;;;4.35;;
25263;SDS011;13211;51.796;5.808;2022-10-22T08:49:37;13.73;;;3.40;;
25263;SDS011;13211;51.796;5.808;2022-10-22T08:52:14;20.88;;;4.15;;
25263;SDS011;13211;51.796;5.808;2022-10-22T08:54:54;27.25;;;4.05;;
25263;SDS011;13211;51.796;5.808;2022-10-22T08:57:31;29.00;;;4.43;;
25263;SDS011;13211;51.796;5.808;2022-10-22T09:03:05;13.63;;;2.78;;
25263;SDS011;13211;51.796;5.808;2022-10-22T09:08:10;18.70;;;3.50;;
25263;SDS011;13211;51.796;5.808;2022-10-22T09:10:39;19.17;;;3.00;;
25263;SDS011;13211;51.796;5.808;2022-10-22T09:15:37;24.10;;;3.88;;
25263;SDS011;13211;51.796;5.808;2022-10-22T09:25:39;17.17;;;2.90;;
25263;SDS011;13211;51.796;5.808;2022-10-22T09:28:09;15.60;;;2.72;;
25263;SDS011;13211;51.796;5.808;2022-10-22T09:30:38;18.75;;;3.40;;
25263;SDS011;13211;51.796;5.808;2022-10-22T09:35:47;19.15;;;2.40;;
25263;SDS011;13211;51.796;5.808;2022-10-22T09:38:19;17.13;;;2.67;;
25263;SDS011;13211;51.796;5.808;2022-10-22T09:40:48;24.73;;;3.15;;
25263;SDS011;13211;51.796;5.808;2022-10-22T09:43:17;13.95;;;3.10;;
25263;SDS011;13211;51.796;5.808;2022-10-22T09:45:45;13.45;;;2.20;;
25263;SDS011;13211;51.796;5.808;2022-10-22T09:50:47;17.90;;;3.08;;
25263;SDS011;13211;51.796;5.808;2022-10-22T09:55:52;18.98;;;3.05;;
25263;SDS011;13211;51.796;5.808;2022-10-22T09:58:21;19.58;;;2.75;;
25263;SDS011;13211;51.796;5.808;2022-10-22T10:00:55;17.95;;;3.60;;
25263;SDS011;13211;51.796;5.808;2022-10-22T10:06:35;14.63;;;2.95;;
25263;SDS011;13211;51.796;5.808;2022-10-22T10:09:23;15.15;;;2.88;;
25263;SDS011;13211;51.796;5.808;2022-10-22T10:17:32;19.63;;;3.28;;
25263;SDS011;13211;51.796;5.808;2022-10-22T10:23:01;20.95;;;3.60;;
25263;SDS011;13211;51.796;5.808;2022-10-22T10:25:34;17.17;;;4.00;;
25263;SDS011;13211;51.796;5.808;2022-10-22T10:28:15;12.60;;;3.28;;
25263;SDS011;13211;51.796;5.808;2022-10-22T10:30:50;22.52;;;3.83;;
25263;SDS011;13211;51.796;5.808;2022-10-22T10:41:18;15.68;;;3.20;;
25263;SDS011;13211;51.796;5.808;2022-10-22T10:46:45;19.30;;;2.95;;
25263;SDS011;13211;51.796;5.808;2022-10-22T10:49:21;16.48;;;3.58;;
25263;SDS011;13211;51.796;5.808;2022-10-22T10:59:28;16.58;;;3.85;;
25263;SDS011;13211;51.796;5.808;2022-10-22T11:07:35;17.20;;;3.45;;
25263;SDS011;13211;51.796;5.808;2022-10-22T11:10:26;15.52;;;3.50;;
25263;SDS011;13211;51.796;5.808;2022-10-22T11:12:57;11.52;;;2.97;;
25263;SDS011;13211;51.796;5.808;2022-10-22T11:15:32;15.40;;;3.03;;
25263;SDS011;13211;51.796;5.808;2022-10-22T11:18:11;11.55;;;3.30;;
25263;SDS011;13211;51.796;5.808;2022-10-22T11:23:17;17.75;;;3.15;;
25263;SDS011;13211;51.796;5.808;2022-10-22T11:25:50;16.42;;;2.70;;
25263;SDS011;13211;51.796;5.808;2022-10-22T11:28:24;17.13;;;3.10;;
25263;SDS011;13211;51.796;5.808;2022-10-22T11:31:03;19.50;;;2.70;;
25263;SDS011;13211;51.796;5.808;2022-10-22T11:33:35;14.63;;;2.47;;
25263;SDS011;13211;51.796;5.808;2022-10-22T11:36:06;17.17;;;3.20;;
25263;SDS011;13211;51.796;5.808;2022-10-22T11:38:35;15.48;;;2.85;;
25263;SDS011;13211;51.796;5.808;2022-10-22T11:41:18;22.05;;;4.22;;
25263;SDS011;13211;51.796;5.808;2022-10-22T11:44:08;19.05;;;2.85;;
25263;SDS011;13211;51.796;5.808;2022-10-22T11:46:44;27.55;;;3.28;;
25263;SDS011;13211;51.796;5.808;2022-10-22T11:51:43;18.85;;;3.35;;
25263;SDS011;13211;51.796;5.808;2022-10-22T11:54:25;16.83;;;2.97;;
25263;SDS011;13211;51.796;5.808;2022-10-22T11:59:46;25.70;;;3.03;;
25263;SDS011;13211;51.796;5.808;2022-10-22T12:10:58;10.68;;;2.47;;
25263;SDS011;13211;51.796;5.808;2022-10-22T12:13:32;20.05;;;2.70;;
25263;SDS011;13211;51.796;5.808;2022-10-22T12:16:07;17.13;;;3.00;;
25263;SDS011;13211;51.796;5.808;2022-10-22T12:18:40;15.23;;;2.88;;
25263;SDS011;13211;51.796;5.808;2022-10-22T12:21:11;22.17;;;2.65;;
25263;SDS011;13211;51.796;5.808;2022-10-22T12:26:20;11.55;;;2.53;;
25263;SDS011;13211;51.796;5.808;2022-10-22T12:28:49;16.00;;;2.80;;
25263;SDS011;13211;51.796;5.808;2022-10-22T12:31:19;11.20;;;2.92;;
25263;SDS011;13211;51.796;5.808;2022-10-22T12:33:47;13.20;;;2.60;;
25263;SDS011;13211;51.796;5.808;2022-10-22T12:36:17;18.63;;;3.57;;
25263;SDS011;13211;51.796;5.808;2022-10-22T12:38:45;19.15;;;2.80;;
25263;SDS011;13211;51.796;5.808;2022-10-22T12:41:13;22.42;;;3.10;;
25263;SDS011;13211;51.796;5.808;2022-10-22T12:43:42;12.23;;;2.42;;
25263;SDS011;13211;51.796;5.808;2022-10-22T12:46:13;17.50;;;2.80;;
25263;SDS011;13211;51.796;5.808;2022-10-22T12:48:42;15.93;;;2.70;;
25263;SDS011;13211;51.796;5.808;2022-10-22T12:51:15;17.90;;;3.55;;
25263;SDS011;13211;51.796;5.808;2022-10-22T12:53:47;14.40;;;2.72;;
25263;SDS011;13211;51.796;5.808;2022-10-22T12:56:20;13.23;;;2.40;;
25263;SDS011;13211;51.796;5.808;2022-10-22T12:58:53;24.05;;;2.40;;
25263;SDS011;13211;51.796;5.808;2022-10-22T13:01:24;15.48;;;2.63;;
25263;SDS011;13211;51.796;5.808;2022-10-22T13:04:12;18.37;;;2.70;;
25263;SDS011;13211;51.796;5.808;2022-10-22T13:06:43;14.30;;;2.72;;
25263;SDS011;13211;51.796;5.808;2022-10-22T13:09:17;14.95;;;2.47;;
25263;SDS011;13211;51.796;5.808;2022-10-22T13:12:04;11.30;;;2.53;;
25263;SDS011;13211;51.796;5.808;2022-10-22T13:14:33;17.77;;;2.80;;
25263;SDS011;13211;51.796;5.808;2022-10-22T13:17:05;17.52;;;3.00;;
25263;SDS011;13211;51.796;5.808;2022-10-22T13:19:34;14.63;;;2.70;;
25263;SDS011;13211;51.796;5.808;2022-10-22T13:22:02;18.85;;;2.42;;
25263;SDS011;13211;51.796;5.808;2022-10-22T13:24:32;25.73;;;3.67;;
25263;SDS011;13211;51.796;5.808;2022-10-22T13:27:06;19.55;;;2.90;;
25263;SDS011;13211;51.796;5.808;2022-10-22T13:29:35;21.25;;;3.00;;
25263;SDS011;13211;51.796;5.808;2022-10-22T13:32:24;20.83;;;2.97;;
25263;SDS011;13211;51.796;5.808;2022-10-22T13:34:55;18.40;;;2.70;;
25263;SDS011;13211;51.796;5.808;2022-10-22T13:37:25;16.77;;;2.90;;
25263;SDS011;13211;51.796;5.808;2022-10-22T13:42:23;17.40;;;2.80;;
25263;SDS011;13211;51.796;5.808;2022-10-22T13:44:52;23.73;;;3.28;;
25263;SDS011;13211;51.796;5.808;2022-10-22T13:47:24;22.65;;;3.15;;
25263;SDS011;13211;51.796;5.808;2022-10-22T13:49:53;20.20;;;3.15;;
25263;SDS011;13211;51.796;5.808;2022-10-22T13:52:35;13.55;;;2.95;;
25263;SDS011;13211;51.796;5.808;2022-10-22T13:55:26;12.13;;;2.53;;
25263;SDS011;13211;51.796;5.808;2022-10-22T13:58:13;16.02;;;2.15;;
25263;SDS011;13211;51.796;5.808;2022-10-22T14:00:47;25.30;;;2.97;;
25263;SDS011;13211;51.796;5.808;2022-10-22T14:03:16;15.30;;;2.10;;
25263;SDS011;13211;51.796;5.808;2022-10-22T14:05:46;10.50;;;2.10;;
25263;SDS011;13211;51.796;5.808;2022-10-22T14:08:15;11.40;;;2.20;;
25263;SDS011;13211;51.796;5.808;2022-10-22T14:10:44;16.73;;;2.13;;
25263;SDS011;13211;51.796;5.808;2022-10-22T14:13:12;14.55;;;1.65;;
25263;SDS011;13211;51.796;5.808;2022-10-22T14:15:41;19.60;;;2.35;;
25263;SDS011;13211;51.796;5.808;2022-10-22T14:18:11;9.68;;;2.22;;
25263;SDS011;13211;51.796;5.808;2022-10-22T14:20:42;19.25;;;2.08;;
25263;SDS011;13211;51.796;5.808;2022-10-22T14:23:20;18.90;;;2.38;;
25263;SDS011;13211;51.796;5.808;2022-10-22T14:25:48;17.63;;;2.60;;
25263;SDS011;13211;51.796;5.808;2022-10-22T14:28:18;12.77;;;3.17;;
25263;SDS011;13211;51.796;5.808;2022-10-22T14:30:46;13.30;;;2.42;;
25263;SDS011;13211;51.796;5.808;2022-10-22T14:33:20;18.00;;;2.20;;
25263;SDS011;13211;51.796;5.808;2022-10-22T14:36:00;15.02;;;2.28;;
25263;SDS011;13211;51.796;5.808;2022-10-22T14:38:28;14.20;;;2.40;;
25263;SDS011;13211;51.796;5.808;2022-10-22T14:40:58;22.15;;;2.88;;
25263;SDS011;13211;51.796;5.808;2022-10-22T14:43:28;15.98;;;2.45;;
25263;SDS011;13211;51.796;5.808;2022-10-22T14:46:00;16.35;;;2.83;;
25263;SDS011;13211;51.796;5.808;2022-10-22T14:48:27;23.67;;;3.22;;
25263;SDS011;13211;51.796;5.808;2022-10-22T14:50:57;11.90;;;2.00;;
25263;SDS011;13211;51.796;5.808;2022-10-22T14:53:26;9.00;;;2.10;;
25263;SDS011;13211;51.796;5.808;2022-10-22T14:55:55;18.10;;;2.40;;
25263;SDS011;13211;51.796;5.808;2022-10-22T14:58:26;10.85;;;2.28;;
25263;SDS011;13211;51.796;5.808;2022-10-22T15:00:54;9.40;;;1.75;;
25263;SDS011;13211;51.796;5.808;2022-10-22T15:03:28;11.70;;;2.30;;
25263;SDS011;13211;51.796;5.808;2022-10-22T15:06:02;15.98;;;2.25;;
25263;SDS011;13211;51.796;5.808;2022-10-22T15:08:31;10.38;;;1.75;;
25263;SDS011;13211;51.796;5.808;2022-10-22T15:11:11;10.80;;;2.15;;
25263;SDS011;13211;51.796;5.808;2022-10-22T15:13:40;17.00;;;1.92;;
25263;SDS011;13211;51.796;5.808;2022-10-22T15:16:15;10.82;;;2.17;;
25263;SDS011;13211;51.796;5.808;2022-10-22T15:18:45;15.23;;;2.45;;
25263;SDS011;13211;51.796;5.808;2022-10-22T15:21:15;12.60;;;2.33;;
25263;SDS011;13211;51.796;5.808;2022-10-22T15:23:44;22.77;;;2.40;;
25263;SDS011;13211;51.796;5.808;2022-10-22T15:26:13;7.40;;;1.60;;
25263;SDS011;13211;51.796;5.808;2022-10-22T15:28:42;16.10;;;2.20;;
25263;SDS011;13211;51.796;5.808;2022-10-22T15:31:13;15.98;;;2.72;;
25263;SDS011;13211;51.796;5.808;2022-10-22T15:33:45;10.50;;;2.17;;
25263;SDS011;13211;51.796;5.808;2022-10-22T15:36:15;13.00;;;2.13;;
25263;SDS011;13211;51.796;5.808;2022-10-22T15:38:44;12.93;;;2.05;;
25263;SDS011;13211;51.796;5.808;2022-10-22T15:41:15;18.90;;;2.83;;
25263;SDS011;13211;51.796;5.808;2022-10-22T15:43:52;15.60;;;2.00;;
25263;SDS011;13211;51.796;5.808;2022-10-22T15:46:21;12.30;;;1.90;;
25263;SDS011;13211;51.796;5.808;2022-10-22T15:51:21;11.30;;;2.63;;
25263;SDS011;13211;51.796;5.808;2022-10-22T15:53:50;15.23;;;2.30;;
25263;SDS011;13211;51.796;5.808;2022-10-22T15:56:20;11.10;;;2.60;;
25263;SDS011;13211;51.796;5.808;2022-10-22T15:58:55;14.57;;;2.50;;
25263;SDS011;13211;51.796;5.808;2022-10-22T16:01:25;14.32;;;2.40;;
25263;SDS011;13211;51.796;5.808;2022-10-22T16:03:59;13.70;;;2.30;;
25263;SDS011;13211;51.796;5.808;2022-10-22T16:06:30;20.60;;;3.53;;
25263;SDS011;13211;51.796;5.808;2022-10-22T16:11:28;10.55;;;2.15;;
25263;SDS011;13211;51.796;5.808;2022-10-22T16:14:00;12.82;;;2.42;;
25263;SDS011;13211;51.796;5.808;2022-10-22T16:16:29;17.80;;;2.83;;
25263;SDS011;13211;51.796;5.808;2022-10-22T16:19:01;8.52;;;2.00;;
25263;SDS011;13211;51.796;5.808;2022-10-22T16:21:31;8.73;;;2.25;;
25263;SDS011;13211;51.796;5.808;2022-10-22T16:24:02;10.90;;;2.13;;
25263;SDS011;13211;51.796;5.808;2022-10-22T16:26:32;15.90;;;2.63;;
25263;SDS011;13211;51.796;5.808;2022-10-22T16:29:03;16.35;;;2.67;;
25263;SDS011;13211;51.796;5.808;2022-10-22T16:31:34;16.67;;;3.85;;
25263;SDS011;13211;51.796;5.808;2022-10-22T16:34:04;16.25;;;3.15;;
25263;SDS011;13211;51.796;5.808;2022-10-22T16:36:33;18.48;;;2.67;;
25263;SDS011;13211;51.796;5.808;2022-10-22T16:39:02;14.55;;;3.00;;
25263;SDS011;13211;51.796;5.808;2022-10-22T16:41:34;10.15;;;2.22;;
25263;SDS011;13211;51.796;5.808;2022-10-22T16:44:17;14.73;;;2.60;;
25263;SDS011;13211;51.796;5.808;2022-10-22T16:46:45;27.83;;;2.53;;
25263;SDS011;13211;51.796;5.808;2022-10-22T16:49:13;16.52;;;3.33;;
25263;SDS011;13211;51.796;5.808;2022-10-22T16:51:42;21.00;;;2.53;;